createdAt,value
2019-03-16T00:00:45.364Z,25.60
2019-03-16T00:03:17.731Z,25.70
2019-03-16T00:05:49.806Z,25.70
2019-03-16T00:08:22.027Z,25.70
2019-03-16T00:10:56.283Z,25.70
2019-03-16T00:13:28.866Z,25.70
2019-03-16T00:16:00.688Z,25.80
2019-03-16T00:18:32.604Z,25.80
2019-03-16T00:21:04.848Z,25.80
2019-03-16T00:23:36.829Z,25.90
2019-03-16T00:26:08.630Z,25.90
2019-03-16T00:28:41.897Z,26.00
2019-03-16T00:31:13.986Z,26.00
2019-03-16T00:33:46.342Z,26.00
2019-03-16T00:36:19.179Z,26.10
2019-03-16T00:38:51.331Z,26.10
2019-03-16T00:41:23.469Z,26.20
2019-03-16T00:43:55.740Z,26.20
2019-03-16T00:46:27.983Z,26.30
2019-03-16T00:49:00.156Z,26.30
2019-03-16T00:51:34.181Z,26.40
2019-03-16T00:54:06.451Z,26.40
2019-03-16T00:56:39.337Z,26.40
2019-03-16T00:59:11.411Z,26.50
2019-03-16T01:01:44.441Z,26.50
2019-03-16T01:04:16.610Z,26.50
2019-03-16T01:06:48.578Z,26.50
2019-03-16T01:09:20.770Z,26.60
2019-03-16T01:11:53.379Z,26.60
2019-03-16T01:14:25.309Z,26.60
2019-03-16T01:16:57.348Z,26.70
2019-03-16T01:19:29.788Z,26.70
2019-03-16T01:22:03.079Z,26.80
2019-03-16T01:24:35.200Z,26.80
2019-03-16T01:27:14.488Z,26.90
2019-03-16T01:29:47.681Z,27.00
2019-03-16T01:32:19.816Z,27.00
2019-03-16T01:34:51.712Z,27.10
2019-03-16T01:37:25.372Z,27.10
2019-03-16T01:39:57.564Z,27.20
2019-03-16T01:42:30.896Z,27.20
2019-03-16T01:45:02.910Z,27.30
2019-03-16T01:47:54.039Z,27.40
2019-03-16T01:50:26.611Z,27.50
2019-03-16T01:52:58.635Z,27.60
2019-03-16T01:55:31.845Z,27.70
2019-03-16T01:58:03.961Z,27.70
2019-03-16T02:00:36.176Z,27.80
2019-03-16T02:03:11.020Z,27.80
2019-03-16T02:05:43.252Z,27.90
2019-03-16T02:08:15.499Z,27.90
2019-03-16T02:10:56.828Z,28.00
2019-03-16T02:13:28.277Z,28.00
2019-03-16T02:16:10.940Z,28.10
2019-03-16T02:18:37.520Z,28.10
2019-03-16T02:21:09.664Z,28.20
2019-03-16T02:23:41.804Z,28.20
2019-03-16T02:26:15.763Z,28.30
2019-03-16T02:28:47.656Z,28.40
2019-03-16T02:31:20.590Z,28.40
2019-03-16T02:33:52.754Z,28.50
2019-03-16T02:36:27.775Z,28.50
2019-03-16T02:38:59.967Z,28.60
2019-03-16T02:41:32.071Z,28.60
2019-03-16T02:44:11.508Z,28.70
2019-03-16T02:46:47.834Z,28.70
2019-03-16T02:49:20.570Z,28.80
2019-03-16T02:51:55.573Z,28.80
2019-03-16T02:54:28.250Z,28.90
2019-03-16T02:57:00.528Z,29.00
2019-03-16T02:59:33.043Z,29.00
2019-03-16T03:02:05.228Z,29.10
2019-03-16T03:04:45.689Z,29.20
2019-03-16T03:07:14.930Z,29.20
2019-03-16T03:09:47.254Z,29.30
2019-03-16T03:12:19.570Z,29.30
2019-03-16T03:14:52.629Z,29.40
2019-03-16T03:17:25.245Z,29.40
2019-03-16T03:19:57.393Z,29.50
2019-03-16T03:22:48.938Z,29.50
2019-03-16T03:25:21.410Z,29.60
2019-03-16T03:27:53.287Z,29.60
2019-03-16T03:30:25.694Z,29.70
2019-03-16T03:33:00.097Z,29.70
2019-03-16T03:35:32.441Z,29.80
2019-03-16T03:38:07.691Z,29.90
2019-03-16T03:40:40.538Z,29.90
2019-03-16T03:43:12.759Z,30.00
2019-03-16T03:45:45.622Z,30.10
2019-03-16T03:48:18.606Z,30.20
2019-03-16T03:50:50.897Z,30.30
2019-03-16T03:53:23.209Z,30.40
2019-03-16T03:55:56.353Z,30.50
2019-03-16T03:58:28.511Z,30.60
2019-03-16T04:01:00.697Z,30.60
2019-03-16T04:03:32.845Z,30.70
2019-03-16T04:06:06.609Z,30.80
2019-03-16T04:08:41.426Z,30.90
2019-03-16T04:11:13.876Z,30.90
2019-03-16T04:13:45.815Z,31.00
2019-03-16T04:16:18.096Z,31.10
2019-03-16T04:19:10.886Z,31.20
2019-03-16T04:21:43.239Z,31.20
2019-03-16T04:24:15.189Z,31.40
2019-03-16T04:26:49.729Z,31.50
2019-03-16T04:29:21.487Z,31.60
2019-03-16T04:31:54.213Z,31.70
2019-03-16T04:34:29.537Z,31.70
2019-03-16T04:37:04.744Z,31.80
2019-03-16T04:39:37.120Z,31.90
2019-03-16T04:42:11.512Z,32.00
2019-03-16T04:44:45.051Z,32.10
2019-03-16T04:47:19.725Z,32.30
2019-03-16T04:49:54.394Z,32.40
2019-03-16T04:52:28.569Z,32.50
2019-03-16T04:55:00.898Z,32.50
2019-03-16T04:57:32.905Z,32.60
2019-03-16T05:00:06.191Z,32.70
2019-03-16T05:02:38.234Z,32.80
2019-03-16T05:05:28.825Z,32.90
2019-03-16T05:08:03.248Z,33.00
2019-03-16T05:10:39.611Z,33.10
2019-03-16T05:13:11.680Z,33.20
2019-03-16T05:15:43.775Z,33.30
2019-03-16T05:18:16.163Z,33.50
2019-03-16T05:20:59.650Z,33.50
2019-03-16T05:23:31.693Z,33.60
2019-03-16T05:26:03.947Z,33.70
2019-03-16T05:28:36.092Z,33.70
2019-03-16T05:31:08.121Z,33.80
2019-03-16T05:33:40.399Z,33.90
2019-03-16T05:36:12.327Z,33.90
2019-03-16T05:38:45.025Z,34.00
2019-03-16T05:41:16.936Z,34.00
2019-03-16T05:43:48.956Z,34.00
2019-03-16T05:46:21.003Z,34.10
2019-03-16T05:48:53.016Z,34.20
2019-03-16T05:51:25.197Z,34.20
2019-03-16T05:53:57.463Z,34.20
2019-03-16T05:56:32.541Z,34.30
2019-03-16T05:59:04.766Z,34.40
2019-03-16T06:01:36.681Z,34.50
2019-03-16T06:04:08.671Z,34.60
2019-03-16T06:06:40.586Z,34.60
2019-03-16T06:09:13.414Z,34.70
2019-03-16T06:11:45.282Z,34.80
2019-03-16T06:14:20.681Z,34.90
2019-03-16T06:16:54.110Z,35.00
2019-03-16T06:19:28.686Z,35.10
2019-03-16T06:22:01.113Z,35.20
2019-03-16T06:24:33.551Z,35.20
2019-03-16T06:27:05.490Z,35.30
2019-03-16T06:29:37.571Z,35.30
2019-03-16T06:32:09.606Z,35.40
2019-03-16T06:34:41.590Z,35.40
2019-03-16T06:37:15.805Z,35.50
2019-03-16T06:39:47.898Z,35.50
2019-03-16T06:42:20.682Z,35.60
2019-03-16T06:44:52.921Z,35.60
2019-03-16T06:47:25.164Z,35.60
2019-03-16T06:50:03.809Z,35.60
2019-03-16T06:52:37.638Z,35.70
2019-03-16T06:55:10.913Z,35.70
2019-03-16T06:57:43.105Z,35.70
2019-03-16T07:00:25.595Z,35.70
2019-03-16T07:02:57.892Z,35.80
2019-03-16T07:05:38.184Z,35.80
2019-03-16T07:08:04.240Z,35.90
2019-03-16T07:10:37.737Z,35.90
2019-03-16T07:13:30.595Z,35.80
2019-03-16T07:16:03.290Z,35.80
2019-03-16T07:18:35.431Z,35.80
2019-03-16T07:21:07.891Z,35.90
2019-03-16T07:23:40.499Z,35.90
2019-03-16T07:26:15.200Z,36.00
2019-03-16T07:28:46.195Z,36.10
2019-03-16T07:31:18.654Z,36.10
2019-03-16T07:33:51.506Z,36.20
2019-03-16T07:36:23.467Z,36.10
2019-03-16T07:38:55.442Z,36.10
2019-03-16T07:41:27.557Z,36.10
2019-03-16T07:43:59.389Z,36.10
2019-03-16T07:46:31.697Z,36.20
2019-03-16T07:49:04.171Z,36.20
2019-03-16T07:51:37.451Z,36.20
2019-03-16T07:54:09.801Z,36.20
2019-03-16T07:56:42.073Z,36.20
2019-03-16T07:59:13.905Z,36.20
2019-03-16T08:01:45.853Z,36.10
2019-03-16T08:04:37.161Z,35.90
2019-03-16T08:07:15.546Z,35.90
2019-03-16T08:10:11.989Z,35.90
2019-03-16T08:12:45.419Z,35.90
2019-03-16T08:15:17.491Z,35.90
2019-03-16T08:17:49.821Z,35.90
2019-03-16T08:20:23.446Z,36.00
2019-03-16T08:22:55.264Z,36.00
2019-03-16T08:25:30.149Z,36.00
2019-03-16T08:28:22.544Z,36.00
2019-03-16T08:30:56.890Z,36.00
2019-03-16T08:33:29.525Z,36.10
2019-03-16T08:36:21.859Z,36.00
2019-03-16T08:38:54.832Z,36.10
2019-03-16T08:41:27.029Z,36.10
2019-03-16T08:43:59.346Z,36.10
2019-03-16T08:46:31.556Z,36.00
2019-03-16T08:49:03.726Z,36.10
2019-03-16T08:51:36.056Z,36.10
2019-03-16T08:54:28.572Z,36.00
2019-03-16T08:57:01.286Z,36.00
2019-03-16T08:59:33.568Z,36.10
2019-03-16T09:02:07.657Z,36.10
2019-03-16T09:04:40.463Z,36.10
2019-03-16T09:07:12.894Z,36.10
2019-03-16T09:09:44.881Z,36.10
2019-03-16T09:12:16.977Z,36.00
2019-03-16T09:14:49.378Z,36.00
2019-03-16T09:17:21.583Z,35.90
2019-03-16T09:20:13.198Z,35.80
2019-03-16T09:22:45.622Z,35.70
2019-03-16T09:25:19.884Z,35.70
2019-03-16T09:27:53.135Z,35.70
2019-03-16T09:30:25.216Z,35.70
2019-03-16T09:32:57.881Z,35.70
2019-03-16T09:35:30.043Z,35.60
2019-03-16T09:38:05.385Z,35.60
2019-03-16T09:40:37.394Z,35.60
2019-03-16T09:43:29.584Z,35.60
2019-03-16T09:46:03.514Z,35.60
2019-03-16T09:48:36.072Z,35.60
2019-03-16T09:51:08.129Z,35.60
2019-03-16T09:53:42.765Z,35.60
2019-03-16T09:56:15.082Z,35.50
2019-03-16T09:58:47.696Z,35.40
2019-03-16T10:01:20.091Z,35.30
2019-03-16T10:03:52.444Z,35.30
2019-03-16T10:06:24.759Z,35.30
2019-03-16T10:08:57.639Z,35.20
2019-03-16T10:11:30.005Z,35.20
2019-03-16T10:14:02.210Z,35.10
2019-03-16T10:16:35.361Z,35.10
2019-03-16T10:19:07.900Z,35.00
2019-03-16T10:21:59.770Z,35.00
2019-03-16T10:24:55.605Z,34.90
2019-03-16T10:27:28.086Z,34.90
2019-03-16T10:30:00.551Z,34.80
2019-03-16T10:32:33.327Z,34.70
2019-03-16T10:35:07.152Z,34.60
2019-03-16T10:37:39.726Z,34.60
2019-03-16T10:40:15.551Z,34.50
2019-03-16T10:42:47.390Z,34.40
2019-03-16T10:45:19.834Z,34.20
2019-03-16T10:47:52.869Z,34.10
2019-03-16T10:50:26.307Z,34.00
2019-03-16T10:52:58.263Z,33.80
2019-03-16T10:55:30.977Z,33.70
2019-03-16T10:58:02.862Z,33.60
2019-03-16T11:00:35.048Z,33.50
2019-03-16T11:03:07.410Z,33.40
2019-03-16T11:05:39.350Z,33.30
2019-03-16T11:08:11.189Z,33.10
2019-03-16T11:10:43.268Z,33.00
2019-03-16T11:13:35.778Z,32.90
2019-03-16T11:16:08.465Z,32.90
2019-03-16T11:18:41.585Z,32.80
2019-03-16T11:21:13.661Z,32.80
2019-03-16T11:23:49.175Z,32.70
2019-03-16T11:26:21.474Z,32.70
2019-03-16T11:28:53.673Z,32.60
2019-03-16T11:31:25.750Z,32.50
2019-03-16T11:33:57.833Z,32.50
2019-03-16T11:36:30.076Z,32.50
2019-03-16T11:39:03.166Z,32.40
2019-03-16T11:41:38.192Z,32.30
2019-03-16T11:44:23.583Z,32.30
2019-03-16T11:46:51.506Z,32.20
2019-03-16T11:49:23.577Z,32.20
2019-03-16T11:51:55.854Z,32.10
2019-03-16T11:54:28.070Z,32.10
2019-03-16T11:57:00.339Z,32.10
2019-03-16T11:59:51.574Z,32.00
2019-03-16T12:02:25.971Z,31.90
2019-03-16T12:05:04.779Z,31.80
2019-03-16T12:07:36.957Z,31.80
2019-03-16T12:10:12.404Z,31.80
2019-03-16T12:12:47.560Z,31.70
2019-03-16T12:15:19.924Z,31.70
2019-03-16T12:17:53.386Z,31.70
2019-03-16T12:20:26.674Z,31.70
2019-03-16T12:22:58.590Z,31.70
2019-03-16T12:25:30.710Z,31.70
2019-03-16T12:28:04.593Z,31.70
2019-03-16T12:30:36.939Z,31.60
2019-03-16T12:33:09.249Z,31.60
2019-03-16T12:35:41.248Z,31.50
2019-03-16T12:38:14.596Z,31.40
2019-03-16T12:41:06.075Z,31.30
2019-03-16T12:43:38.507Z,31.30
2019-03-16T12:46:10.780Z,31.10
2019-03-16T12:49:03.227Z,31.00
2019-03-16T12:51:35.205Z,31.00
2019-03-16T12:54:07.426Z,30.90
2019-03-16T12:56:39.842Z,30.80
2019-03-16T12:59:32.722Z,30.70
2019-03-16T13:02:04.827Z,30.70
2019-03-16T13:04:36.742Z,30.70
2019-03-16T13:07:08.896Z,30.60
2019-03-16T13:09:42.669Z,30.60
2019-03-16T13:12:14.788Z,30.60
2019-03-16T13:14:47.011Z,30.60
2019-03-16T13:17:19.145Z,30.50
2019-03-16T13:19:51.197Z,30.50
2019-03-16T13:22:24.798Z,30.50
2019-03-16T13:24:56.919Z,30.50
2019-03-16T13:27:29.653Z,30.50
2019-03-16T13:30:01.690Z,30.40
2019-03-16T13:32:33.773Z,30.40
2019-03-16T13:35:07.265Z,30.40
2019-03-16T13:37:39.390Z,30.30
2019-03-16T13:40:15.079Z,30.30
2019-03-16T13:42:47.016Z,30.30
2019-03-16T13:45:19.163Z,30.30
2019-03-16T13:47:52.030Z,30.20
2019-03-16T13:50:24.306Z,30.20
2019-03-16T13:52:56.815Z,30.20
2019-03-16T13:55:29.084Z,30.20
2019-03-16T13:58:01.299Z,30.20
2019-03-16T14:00:33.414Z,30.20
2019-03-16T14:03:06.001Z,30.20
2019-03-16T14:05:38.092Z,30.10
2019-03-16T14:08:11.719Z,30.10
2019-03-16T14:10:44.300Z,30.10
2019-03-16T14:13:16.339Z,30.10
2019-03-16T14:15:48.559Z,30.10
2019-03-16T14:18:20.663Z,30.00
2019-03-16T14:20:52.911Z,30.00
2019-03-16T14:23:26.002Z,30.00
2019-03-16T14:25:58.338Z,30.00
2019-03-16T14:28:34.275Z,30.00
2019-03-16T14:31:06.290Z,29.90
2019-03-16T14:33:38.623Z,29.90
2019-03-16T14:36:11.160Z,29.90
2019-03-16T14:38:44.460Z,29.90
2019-03-16T14:41:16.739Z,29.90
2019-03-16T14:43:48.922Z,29.80
2019-03-16T14:46:20.975Z,29.80
2019-03-16T14:48:53.398Z,29.80
2019-03-16T14:51:27.494Z,29.80
2019-03-16T14:53:59.926Z,29.80
2019-03-16T14:56:31.944Z,29.80
2019-03-16T14:59:03.778Z,29.80
2019-03-16T15:01:35.798Z,29.80
2019-03-16T15:04:08.349Z,29.80
2019-03-16T15:06:40.523Z,29.80
2019-03-16T15:09:12.685Z,29.70
2019-03-16T15:11:44.726Z,29.70
2019-03-16T15:14:21.846Z,29.70
2019-03-16T15:16:50.918Z,29.70
2019-03-16T15:19:22.905Z,29.70
2019-03-16T15:21:56.529Z,29.70
2019-03-16T15:24:28.599Z,29.70
2019-03-16T15:27:01.602Z,29.70
2019-03-16T15:29:34.551Z,29.70
2019-03-16T15:32:06.616Z,29.70
2019-03-16T15:34:38.863Z,29.60
2019-03-16T15:37:10.890Z,29.60
2019-03-16T15:39:43.058Z,29.60
2019-03-16T15:42:15.331Z,29.60
2019-03-16T15:44:48.377Z,29.60
2019-03-16T15:47:20.498Z,29.60
2019-03-16T15:49:52.739Z,29.50
2019-03-16T15:52:24.879Z,29.50
2019-03-16T15:54:57.097Z,29.50
2019-03-16T15:57:29.163Z,29.40
2019-03-16T16:00:01.144Z,29.40
2019-03-16T16:02:33.925Z,29.40
2019-03-16T16:05:07.681Z,29.40
2019-03-16T16:07:41.986Z,29.30
2019-03-16T16:10:17.645Z,29.40
2019-03-16T16:12:51.225Z,29.40
2019-03-16T16:15:23.344Z,29.30
2019-03-16T16:18:14.928Z,29.30
2019-03-16T16:20:46.963Z,29.20
2019-03-16T16:23:21.787Z,29.20
2019-03-16T16:25:53.713Z,29.20
2019-03-16T16:28:26.790Z,29.10
2019-03-16T16:30:58.938Z,29.10
2019-03-16T16:33:31.144Z,29.10
2019-03-16T16:36:03.150Z,29.00
2019-03-16T16:38:35.604Z,29.00
2019-03-16T16:41:07.745Z,29.00
2019-03-16T16:43:39.810Z,29.00
2019-03-16T16:46:11.939Z,28.90
2019-03-16T16:48:44.060Z,28.90
2019-03-16T16:51:19.349Z,28.90
2019-03-16T16:53:55.270Z,28.90
2019-03-16T16:56:27.315Z,28.80
2019-03-16T16:58:59.798Z,28.80
2019-03-16T17:01:31.632Z,28.80
2019-03-16T17:04:06.795Z,28.80
2019-03-16T17:06:39.947Z,28.70
2019-03-16T17:09:11.874Z,28.70
2019-03-16T17:11:44.215Z,28.70
2019-03-16T17:14:16.496Z,28.70
2019-03-16T17:16:48.634Z,28.70
2019-03-16T17:19:23.775Z,28.60
2019-03-16T17:21:56.101Z,28.60
2019-03-16T17:24:29.053Z,28.60
2019-03-16T17:27:01.039Z,28.60
2019-03-16T17:29:34.169Z,28.60
2019-03-16T17:32:06.513Z,28.60
2019-03-16T17:34:41.096Z,28.60
2019-03-16T17:37:21.969Z,28.60
2019-03-16T17:39:54.234Z,28.60
2019-03-16T17:42:26.354Z,28.50
2019-03-16T17:44:58.829Z,28.50
2019-03-16T17:47:30.911Z,28.50
2019-03-16T17:50:02.877Z,28.50
2019-03-16T17:52:36.349Z,28.50
2019-03-16T17:55:11.429Z,28.40
2019-03-16T17:57:45.430Z,28.40
2019-03-16T18:00:19.556Z,28.40
2019-03-16T18:02:52.623Z,28.40
2019-03-16T18:05:25.172Z,28.40
2019-03-16T18:07:58.631Z,28.30
2019-03-16T18:10:30.729Z,28.30
2019-03-16T18:13:02.771Z,28.30
2019-03-16T18:15:34.980Z,28.20
2019-03-16T18:18:07.103Z,28.20
2019-03-16T18:20:39.358Z,28.20
2019-03-16T18:23:11.401Z,28.20
2019-03-16T18:25:43.508Z,28.20
2019-03-16T18:28:15.720Z,28.10
2019-03-16T18:30:49.010Z,28.10
2019-03-16T18:33:20.965Z,28.10
2019-03-16T18:35:53.323Z,28.10
2019-03-16T18:38:25.475Z,28.10
2019-03-16T18:40:57.421Z,28.00
2019-03-16T18:43:29.480Z,28.00
2019-03-16T18:46:01.471Z,28.00
2019-03-16T18:48:33.457Z,27.90
2019-03-16T18:51:05.648Z,28.00
2019-03-16T18:53:37.728Z,27.90
2019-03-16T18:56:09.934Z,27.90
2019-03-16T18:58:41.993Z,27.90
2019-03-16T19:01:14.216Z,27.90
2019-03-16T19:03:46.266Z,27.90
2019-03-16T19:06:18.215Z,27.90
2019-03-16T19:08:50.463Z,27.90
2019-03-16T19:11:22.559Z,27.90
2019-03-16T19:13:54.729Z,27.90
2019-03-16T19:16:26.676Z,27.90
2019-03-16T19:18:58.701Z,27.90
2019-03-16T19:21:30.992Z,27.90
2019-03-16T19:24:03.122Z,27.90
2019-03-16T19:26:35.192Z,27.90
2019-03-16T19:29:07.458Z,27.90
2019-03-16T19:31:40.396Z,27.90
2019-03-16T19:34:12.335Z,27.90
2019-03-16T19:36:44.592Z,27.90
2019-03-16T19:39:16.917Z,27.90
2019-03-16T19:41:49.252Z,27.90
2019-03-16T19:44:21.524Z,27.90
2019-03-16T19:46:54.207Z,27.90
2019-03-16T19:49:26.431Z,27.90
2019-03-16T19:51:58.356Z,27.80
2019-03-16T19:54:30.541Z,27.80
2019-03-16T19:57:14.970Z,27.80
2019-03-16T19:59:36.984Z,27.70
2019-03-16T20:02:09.234Z,27.70
2019-03-16T20:04:41.136Z,27.60
2019-03-16T20:07:19.260Z,27.60
2019-03-16T20:09:47.113Z,27.50
2019-03-16T20:12:19.354Z,27.50
2019-03-16T20:14:52.275Z,27.40
2019-03-16T20:17:24.814Z,27.40
2019-03-16T20:19:56.958Z,27.30
2019-03-16T20:22:30.226Z,27.30
2019-03-16T20:25:01.997Z,27.20
2019-03-16T20:27:34.546Z,27.20
2019-03-16T20:30:09.668Z,27.20
2019-03-16T20:32:43.165Z,27.10
2019-03-16T20:35:34.593Z,27.10
2019-03-16T20:38:06.964Z,27.10
2019-03-16T20:40:39.145Z,27.00
2019-03-16T20:43:11.288Z,27.00
2019-03-16T20:45:43.697Z,27.00
2019-03-16T20:48:15.691Z,26.90
2019-03-16T20:50:47.648Z,26.90
2019-03-16T20:53:19.463Z,26.90
2019-03-16T20:55:51.542Z,26.90
2019-03-16T20:58:23.714Z,26.80
2019-03-16T21:00:58.272Z,26.80
2019-03-16T21:03:30.565Z,26.80
2019-03-16T21:06:03.097Z,26.80
2019-03-16T21:08:35.370Z,26.80
2019-03-16T21:11:07.852Z,26.90
2019-03-16T21:13:41.264Z,26.90
2019-03-16T21:16:14.234Z,26.90
2019-03-16T21:18:46.299Z,26.80
2019-03-16T21:21:18.493Z,26.80
2019-03-16T21:23:50.753Z,26.80
2019-03-16T21:26:23.213Z,26.70
2019-03-16T21:28:55.484Z,26.70
2019-03-16T21:31:27.742Z,26.70
2019-03-16T21:34:00.518Z,26.60
2019-03-16T21:36:41.408Z,26.60
2019-03-16T21:39:09.957Z,26.60
2019-03-16T21:41:44.404Z,26.50
2019-03-16T21:44:15.956Z,26.50
2019-03-16T21:46:48.192Z,26.50
2019-03-16T21:49:21.047Z,26.50
2019-03-16T21:51:53.155Z,26.40
2019-03-16T21:54:25.780Z,26.40
2019-03-16T21:56:58.090Z,26.40
2019-03-16T21:59:30.205Z,26.40
2019-03-16T22:02:02.143Z,26.30
2019-03-16T22:04:34.754Z,26.30
2019-03-16T22:07:06.955Z,26.30
2019-03-16T22:09:39.124Z,26.30
2019-03-16T22:12:11.650Z,26.30
2019-03-16T22:14:43.772Z,26.30
2019-03-16T22:17:15.779Z,26.30
2019-03-16T22:19:48.031Z,26.30
2019-03-16T22:22:20.214Z,26.30
2019-03-16T22:24:52.228Z,26.20
2019-03-16T22:27:24.715Z,26.20
2019-03-16T22:29:57.075Z,26.20
2019-03-16T22:32:29.279Z,26.20
2019-03-16T22:35:01.283Z,26.20
2019-03-16T22:37:34.653Z,26.20
2019-03-16T22:40:09.463Z,26.20
2019-03-16T22:42:41.505Z,26.30
2019-03-16T22:45:15.698Z,26.30
2019-03-16T22:47:47.741Z,26.20
2019-03-16T22:50:22.519Z,26.20
2019-03-16T22:52:54.729Z,26.20
2019-03-16T22:55:26.586Z,26.20
2019-03-16T22:57:58.942Z,26.20
2019-03-16T23:00:32.226Z,26.20
2019-03-16T23:03:04.419Z,26.10
2019-03-16T23:05:36.529Z,26.10
2019-03-16T23:08:27.989Z,26.10
2019-03-16T23:10:59.817Z,26.10
2019-03-16T23:13:31.971Z,26.10
2019-03-16T23:16:04.267Z,26.10
2019-03-16T23:18:36.655Z,26.10
2019-03-16T23:21:08.718Z,26.10
2019-03-16T23:23:42.622Z,26.10
2019-03-16T23:26:14.807Z,26.00
2019-03-16T23:28:47.142Z,26.00
2019-03-16T23:31:19.400Z,26.00
2019-03-16T23:33:51.919Z,26.00
2019-03-16T23:36:24.249Z,26.00
2019-03-16T23:38:58.117Z,26.00
2019-03-16T23:41:30.768Z,26.00
2019-03-16T23:44:03.013Z,26.00
2019-03-16T23:46:35.022Z,25.90
2019-03-16T23:49:07.358Z,25.90
2019-03-16T23:51:39.677Z,25.90
2019-03-16T23:54:11.827Z,25.80
2019-03-16T23:56:44.465Z,25.80
2019-03-16T23:59:16.560Z,25.80
